sensor_id;sensor_type;location;lat;lon;timestamp;P1;durP1;ratioP1;P2;durP2;ratioP2
61523;SDS011;47393;38.758;-9.164;2023-01-04T00:01:43;7.30;;;5.30;;
61523;SDS011;47393;38.758;-9.164;2023-01-04T00:03:44;12.48;;;5.45;;
61523;SDS011;47393;38.758;-9.164;2023-01-04T00:05:45;8.93;;;5.90;;
61523;SDS011;47393;38.758;-9.164;2023-01-04T00:07:45;9.27;;;5.53;;
61523;SDS011;47393;38.758;-9.164;2023-01-04T00:09:46;7.65;;;4.63;;
61523;SDS011;47393;38.758;-9.164;2023-01-04T00:11:47;6.45;;;5.03;;
61523;SDS011;47393;38.758;-9.164;2023-01-04T00:13:49;6.78;;;4.97;;
61523;SDS011;47393;38.758;-9.164;2023-01-04T00:15:50;10.25;;;5.43;;
61523;SDS011;47393;38.758;-9.164;2023-01-04T00:17:51;7.97;;;5.25;;
61523;SDS011;47393;38.758;-9.164;2023-01-04T00:19:51;8.77;;;5.63;;
61523;SDS011;47393;38.758;-9.164;2023-01-04T00:21:52;11.30;;;5.40;;
61523;SDS011;47393;38.758;-9.164;2023-01-04T00:23:54;15.05;;;6.72;;
61523;SDS011;47393;38.758;-9.164;2023-01-04T00:25:55;17.98;;;5.60;;
61523;SDS011;47393;38.758;-9.164;2023-01-04T00:27:55;8.05;;;5.60;;
61523;SDS011;47393;38.758;-9.164;2023-01-04T00:29:56;10.23;;;5.55;;
61523;SDS011;47393;38.758;-9.164;2023-01-04T00:31:57;10.10;;;5.57;;
61523;SDS011;47393;38.758;-9.164;2023-01-04T00:33:59;10.85;;;5.35;;
61523;SDS011;47393;38.758;-9.164;2023-01-04T00:36:12;7.22;;;4.93;;
61523;SDS011;47393;38.758;-9.164;2023-01-04T00:38:13;7.00;;;5.30;;
61523;SDS011;47393;38.758;-9.164;2023-01-04T00:40:14;12.48;;;5.10;;
61523;SDS011;47393;38.758;-9.164;2023-01-04T00:42:15;18.95;;;5.60;;
61523;SDS011;47393;38.758;-9.164;2023-01-04T00:44:16;12.02;;;5.47;;
61523;SDS011;47393;38.758;-9.164;2023-01-04T00:46:17;7.72;;;5.00;;
61523;SDS011;47393;38.758;-9.164;2023-01-04T00:48:17;8.88;;;4.85;;
61523;SDS011;47393;38.758;-9.164;2023-01-04T00:50:18;7.60;;;4.38;;
61523;SDS011;47393;38.758;-9.164;2023-01-04T00:52:19;4.95;;;4.32;;
61523;SDS011;47393;38.758;-9.164;2023-01-04T00:54:22;9.57;;;4.57;;
61523;SDS011;47393;38.758;-9.164;2023-01-04T00:56:23;7.35;;;4.93;;
61523;SDS011;47393;38.758;-9.164;2023-01-04T00:58:24;5.28;;;4.40;;
61523;SDS011;47393;38.758;-9.164;2023-01-04T01:00:27;14.13;;;4.35;;
61523;SDS011;47393;38.758;-9.164;2023-01-04T01:02:28;8.73;;;4.88;;
61523;SDS011;47393;38.758;-9.164;2023-01-04T01:04:28;11.10;;;4.82;;
61523;SDS011;47393;38.758;-9.164;2023-01-04T01:06:29;13.45;;;4.63;;
61523;SDS011;47393;38.758;-9.164;2023-01-04T01:08:34;4.80;;;4.38;;
61523;SDS011;47393;38.758;-9.164;2023-01-04T01:10:35;11.52;;;5.10;;
61523;SDS011;47393;38.758;-9.164;2023-01-04T01:12:36;10.52;;;5.03;;
61523;SDS011;47393;38.758;-9.164;2023-01-04T01:14:39;5.45;;;4.55;;
61523;SDS011;47393;38.758;-9.164;2023-01-04T01:16:40;6.00;;;5.25;;
61523;SDS011;47393;38.758;-9.164;2023-01-04T01:18:41;7.50;;;5.40;;
61523;SDS011;47393;38.758;-9.164;2023-01-04T01:20:45;13.60;;;5.50;;
61523;SDS011;47393;38.758;-9.164;2023-01-04T01:22:48;8.02;;;5.20;;
61523;SDS011;47393;38.758;-9.164;2023-01-04T01:24:49;7.50;;;4.90;;
61523;SDS011;47393;38.758;-9.164;2023-01-04T01:26:50;11.35;;;4.90;;
61523;SDS011;47393;38.758;-9.164;2023-01-04T01:28:51;5.85;;;4.40;;
61523;SDS011;47393;38.758;-9.164;2023-01-04T01:30:52;9.80;;;4.85;;
61523;SDS011;47393;38.758;-9.164;2023-01-04T01:32:52;6.35;;;5.30;;
61523;SDS011;47393;38.758;-9.164;2023-01-04T01:34:53;9.23;;;5.15;;
61523;SDS011;47393;38.758;-9.164;2023-01-04T01:36:53;7.47;;;4.97;;
61523;SDS011;47393;38.758;-9.164;2023-01-04T01:38:54;8.90;;;5.03;;
61523;SDS011;47393;38.758;-9.164;2023-01-04T01:40:55;8.82;;;5.13;;
61523;SDS011;47393;38.758;-9.164;2023-01-04T01:42:58;13.77;;;5.13;;
61523;SDS011;47393;38.758;-9.164;2023-01-04T01:45:06;9.38;;;5.03;;
61523;SDS011;47393;38.758;-9.164;2023-01-04T01:47:31;5.32;;;4.63;;
61523;SDS011;47393;38.758;-9.164;2023-01-04T01:49:37;11.38;;;5.25;;
61523;SDS011;47393;38.758;-9.164;2023-01-04T01:51:39;15.80;;;5.47;;
61523;SDS011;47393;38.758;-9.164;2023-01-04T01:53:41;14.35;;;5.68;;
61523;SDS011;47393;38.758;-9.164;2023-01-04T01:55:48;13.80;;;5.53;;
61523;SDS011;47393;38.758;-9.164;2023-01-04T01:57:50;9.55;;;5.47;;
61523;SDS011;47393;38.758;-9.164;2023-01-04T01:59:52;7.22;;;4.68;;
61523;SDS011;47393;38.758;-9.164;2023-01-04T02:01:53;12.65;;;5.55;;
61523;SDS011;47393;38.758;-9.164;2023-01-04T02:03:54;7.95;;;5.18;;
61523;SDS011;47393;38.758;-9.164;2023-01-04T02:05:55;9.63;;;5.32;;
61523;SDS011;47393;38.758;-9.164;2023-01-04T02:07:57;11.05;;;5.60;;
61523;SDS011;47393;38.758;-9.164;2023-01-04T02:09:58;9.27;;;5.85;;
61523;SDS011;47393;38.758;-9.164;2023-01-04T02:12:02;10.90;;;6.18;;
61523;SDS011;47393;38.758;-9.164;2023-01-04T02:14:03;11.07;;;5.60;;
61523;SDS011;47393;38.758;-9.164;2023-01-04T02:16:38;8.18;;;5.40;;
61523;SDS011;47393;38.758;-9.164;2023-01-04T02:18:45;9.80;;;5.28;;
61523;SDS011;47393;38.758;-9.164;2023-01-04T02:20:54;6.70;;;5.40;;
61523;SDS011;47393;38.758;-9.164;2023-01-04T02:27:46;9.05;;;5.15;;
61523;SDS011;47393;38.758;-9.164;2023-01-04T02:29:59;10.02;;;6.38;;
61523;SDS011;47393;38.758;-9.164;2023-01-04T02:32:05;11.65;;;6.78;;
61523;SDS011;47393;38.758;-9.164;2023-01-04T02:36:24;7.57;;;5.75;;
61523;SDS011;47393;38.758;-9.164;2023-01-04T02:40:39;7.10;;;6.22;;
61523;SDS011;47393;38.758;-9.164;2023-01-04T02:42:44;17.90;;;6.03;;
61523;SDS011;47393;38.758;-9.164;2023-01-04T02:45:05;6.53;;;5.88;;
61523;SDS011;47393;38.758;-9.164;2023-01-04T02:47:13;9.30;;;5.95;;
61523;SDS011;47393;38.758;-9.164;2023-01-04T02:49:15;12.95;;;6.03;;
61523;SDS011;47393;38.758;-9.164;2023-01-04T02:51:35;13.93;;;5.50;;
61523;SDS011;47393;38.758;-9.164;2023-01-04T02:53:36;12.07;;;6.45;;
61523;SDS011;47393;38.758;-9.164;2023-01-04T02:57:52;13.05;;;6.40;;
61523;SDS011;47393;38.758;-9.164;2023-01-04T03:00:23;14.70;;;5.85;;
61523;SDS011;47393;38.758;-9.164;2023-01-04T03:07:32;7.85;;;6.30;;
61523;SDS011;47393;38.758;-9.164;2023-01-04T03:09:34;10.45;;;6.90;;
61523;SDS011;47393;38.758;-9.164;2023-01-04T03:14:11;7.32;;;6.63;;
61523;SDS011;47393;38.758;-9.164;2023-01-04T03:16:16;8.65;;;6.55;;
61523;SDS011;47393;38.758;-9.164;2023-01-04T03:18:28;15.70;;;7.32;;
61523;SDS011;47393;38.758;-9.164;2023-01-04T03:20:29;10.88;;;7.43;;
61523;SDS011;47393;38.758;-9.164;2023-01-04T03:22:31;10.65;;;7.80;;
61523;SDS011;47393;38.758;-9.164;2023-01-04T03:24:52;9.23;;;8.18;;
61523;SDS011;47393;38.758;-9.164;2023-01-04T03:27:12;13.98;;;8.88;;
61523;SDS011;47393;38.758;-9.164;2023-01-04T03:29:50;19.17;;;8.55;;
61523;SDS011;47393;38.758;-9.164;2023-01-04T03:32:14;13.15;;;8.68;;
61523;SDS011;47393;38.758;-9.164;2023-01-04T03:34:36;10.30;;;8.13;;
61523;SDS011;47393;38.758;-9.164;2023-01-04T03:37:06;16.55;;;10.98;;
61523;SDS011;47393;38.758;-9.164;2023-01-04T03:41:48;21.45;;;11.07;;
61523;SDS011;47393;38.758;-9.164;2023-01-04T03:44:10;16.95;;;10.13;;
61523;SDS011;47393;38.758;-9.164;2023-01-04T03:46:35;21.15;;;11.57;;
61523;SDS011;47393;38.758;-9.164;2023-01-04T03:48:57;20.67;;;10.98;;
61523;SDS011;47393;38.758;-9.164;2023-01-04T03:53:17;17.80;;;12.65;;
61523;SDS011;47393;38.758;-9.164;2023-01-04T03:55:18;20.65;;;12.25;;
61523;SDS011;47393;38.758;-9.164;2023-01-04T03:57:19;27.60;;;13.48;;
61523;SDS011;47393;38.758;-9.164;2023-01-04T03:59:20;32.42;;;12.00;;
61523;SDS011;47393;38.758;-9.164;2023-01-04T04:01:22;18.20;;;12.95;;
61523;SDS011;47393;38.758;-9.164;2023-01-04T04:03:23;27.13;;;13.05;;
61523;SDS011;47393;38.758;-9.164;2023-01-04T04:05:24;23.00;;;12.07;;
61523;SDS011;47393;38.758;-9.164;2023-01-04T04:07:43;19.45;;;12.27;;
61523;SDS011;47393;38.758;-9.164;2023-01-04T04:10:02;42.10;;;17.23;;
61523;SDS011;47393;38.758;-9.164;2023-01-04T04:12:03;31.92;;;15.02;;
61523;SDS011;47393;38.758;-9.164;2023-01-04T04:14:04;25.85;;;11.18;;
61523;SDS011;47393;38.758;-9.164;2023-01-04T04:16:04;15.05;;;12.40;;
61523;SDS011;47393;38.758;-9.164;2023-01-04T04:18:05;23.88;;;12.80;;
61523;SDS011;47393;38.758;-9.164;2023-01-04T04:20:06;19.13;;;10.80;;
61523;SDS011;47393;38.758;-9.164;2023-01-04T04:22:07;18.20;;;12.05;;
61523;SDS011;47393;38.758;-9.164;2023-01-04T04:24:26;17.50;;;11.35;;
61523;SDS011;47393;38.758;-9.164;2023-01-04T04:26:26;20.30;;;11.50;;
61523;SDS011;47393;38.758;-9.164;2023-01-04T04:28:27;15.13;;;9.73;;
61523;SDS011;47393;38.758;-9.164;2023-01-04T04:30:28;12.82;;;9.23;;
61523;SDS011;47393;38.758;-9.164;2023-01-04T04:32:28;18.48;;;11.23;;
61523;SDS011;47393;38.758;-9.164;2023-01-04T04:34:29;20.17;;;11.07;;
61523;SDS011;47393;38.758;-9.164;2023-01-04T04:36:30;27.73;;;10.98;;
61523;SDS011;47393;38.758;-9.164;2023-01-04T04:38:30;12.10;;;9.95;;
61523;SDS011;47393;38.758;-9.164;2023-01-04T04:40:31;13.90;;;10.77;;
61523;SDS011;47393;38.758;-9.164;2023-01-04T04:42:52;12.43;;;8.98;;
61523;SDS011;47393;38.758;-9.164;2023-01-04T04:44:53;17.92;;;10.90;;
61523;SDS011;47393;38.758;-9.164;2023-01-04T04:46:53;24.35;;;9.68;;
61523;SDS011;47393;38.758;-9.164;2023-01-04T04:48:54;16.92;;;9.30;;
61523;SDS011;47393;38.758;-9.164;2023-01-04T04:50:55;24.10;;;9.20;;
61523;SDS011;47393;38.758;-9.164;2023-01-04T04:52:55;15.07;;;9.65;;
61523;SDS011;47393;38.758;-9.164;2023-01-04T04:54:56;12.82;;;9.95;;
61523;SDS011;47393;38.758;-9.164;2023-01-04T04:56:57;11.45;;;8.90;;
61523;SDS011;47393;38.758;-9.164;2023-01-04T04:58:58;20.83;;;10.70;;
61523;SDS011;47393;38.758;-9.164;2023-01-04T05:00:58;15.25;;;10.45;;
61523;SDS011;47393;38.758;-9.164;2023-01-04T05:02:59;14.10;;;11.10;;
61523;SDS011;47393;38.758;-9.164;2023-01-04T05:05:00;19.55;;;11.40;;
61523;SDS011;47393;38.758;-9.164;2023-01-04T05:07:01;15.20;;;9.88;;
61523;SDS011;47393;38.758;-9.164;2023-01-04T05:09:02;13.05;;;11.07;;
61523;SDS011;47393;38.758;-9.164;2023-01-04T05:11:03;21.13;;;9.52;;
61523;SDS011;47393;38.758;-9.164;2023-01-04T05:13:05;20.90;;;9.90;;
61523;SDS011;47393;38.758;-9.164;2023-01-04T05:15:08;16.53;;;9.40;;
61523;SDS011;47393;38.758;-9.164;2023-01-04T05:17:09;19.52;;;9.07;;
61523;SDS011;47393;38.758;-9.164;2023-01-04T05:19:09;15.90;;;7.22;;
61523;SDS011;47393;38.758;-9.164;2023-01-04T05:21:10;12.18;;;8.70;;
61523;SDS011;47393;38.758;-9.164;2023-01-04T05:23:11;13.00;;;7.88;;
61523;SDS011;47393;38.758;-9.164;2023-01-04T05:25:15;12.07;;;8.35;;
61523;SDS011;47393;38.758;-9.164;2023-01-04T05:27:16;9.27;;;7.68;;
61523;SDS011;47393;38.758;-9.164;2023-01-04T05:29:17;16.15;;;7.93;;
61523;SDS011;47393;38.758;-9.164;2023-01-04T05:31:36;11.88;;;7.63;;
61523;SDS011;47393;38.758;-9.164;2023-01-04T05:33:37;9.48;;;7.50;;
61523;SDS011;47393;38.758;-9.164;2023-01-04T05:35:38;13.27;;;6.88;;
61523;SDS011;47393;38.758;-9.164;2023-01-04T05:37:38;7.93;;;7.22;;
61523;SDS011;47393;38.758;-9.164;2023-01-04T05:39:39;8.25;;;7.20;;
61523;SDS011;47393;38.758;-9.164;2023-01-04T05:41:43;17.03;;;8.00;;
61523;SDS011;47393;38.758;-9.164;2023-01-04T05:44:02;8.38;;;7.28;;
61523;SDS011;47393;38.758;-9.164;2023-01-04T05:46:02;20.30;;;9.55;;
61523;SDS011;47393;38.758;-9.164;2023-01-04T05:48:03;15.38;;;8.02;;
61523;SDS011;47393;38.758;-9.164;2023-01-04T05:50:04;14.65;;;8.95;;
61523;SDS011;47393;38.758;-9.164;2023-01-04T05:52:08;11.63;;;8.27;;
61523;SDS011;47393;38.758;-9.164;2023-01-04T05:54:11;14.63;;;8.98;;
61523;SDS011;47393;38.758;-9.164;2023-01-04T05:56:12;19.30;;;9.15;;
61523;SDS011;47393;38.758;-9.164;2023-01-04T05:58:13;11.10;;;9.23;;
61523;SDS011;47393;38.758;-9.164;2023-01-04T06:00:13;16.35;;;8.13;;
61523;SDS011;47393;38.758;-9.164;2023-01-04T06:02:17;10.02;;;7.57;;
61523;SDS011;47393;38.758;-9.164;2023-01-04T06:04:18;13.23;;;7.82;;
61523;SDS011;47393;38.758;-9.164;2023-01-04T06:06:19;12.35;;;7.60;;
61523;SDS011;47393;38.758;-9.164;2023-01-04T06:08:20;12.80;;;7.57;;
61523;SDS011;47393;38.758;-9.164;2023-01-04T06:10:20;12.95;;;7.25;;
61523;SDS011;47393;38.758;-9.164;2023-01-04T06:12:21;14.25;;;6.78;;
61523;SDS011;47393;38.758;-9.164;2023-01-04T06:14:22;7.88;;;6.93;;
61523;SDS011;47393;38.758;-9.164;2023-01-04T06:16:22;12.43;;;7.07;;
61523;SDS011;47393;38.758;-9.164;2023-01-04T06:18:23;11.07;;;8.23;;
61523;SDS011;47393;38.758;-9.164;2023-01-04T06:20:27;12.32;;;7.05;;
61523;SDS011;47393;38.758;-9.164;2023-01-04T06:22:36;12.55;;;7.90;;
61523;SDS011;47393;38.758;-9.164;2023-01-04T06:24:37;17.55;;;7.82;;
61523;SDS011;47393;38.758;-9.164;2023-01-04T06:26:44;15.13;;;7.10;;
61523;SDS011;47393;38.758;-9.164;2023-01-04T06:30:46;12.43;;;6.70;;
61523;SDS011;47393;38.758;-9.164;2023-01-04T06:32:46;12.32;;;7.40;;
61523;SDS011;47393;38.758;-9.164;2023-01-04T06:34:47;11.25;;;6.78;;
61523;SDS011;47393;38.758;-9.164;2023-01-04T06:36:48;9.30;;;7.50;;
61523;SDS011;47393;38.758;-9.164;2023-01-04T06:38:48;12.93;;;7.90;;
61523;SDS011;47393;38.758;-9.164;2023-01-04T06:40:49;11.52;;;7.80;;
61523;SDS011;47393;38.758;-9.164;2023-01-04T06:42:49;8.57;;;7.25;;
61523;SDS011;47393;38.758;-9.164;2023-01-04T06:44:50;14.95;;;7.80;;
61523;SDS011;47393;38.758;-9.164;2023-01-04T06:46:51;7.78;;;6.53;;
61523;SDS011;47393;38.758;-9.164;2023-01-04T06:48:51;14.27;;;7.53;;
61523;SDS011;47393;38.758;-9.164;2023-01-04T06:50:53;22.10;;;8.02;;
61523;SDS011;47393;38.758;-9.164;2023-01-04T06:52:54;14.25;;;7.57;;
61523;SDS011;47393;38.758;-9.164;2023-01-04T06:54:54;19.70;;;7.45;;
61523;SDS011;47393;38.758;-9.164;2023-01-04T06:56:55;20.10;;;7.80;;
61523;SDS011;47393;38.758;-9.164;2023-01-04T06:58:55;20.48;;;7.90;;
61523;SDS011;47393;38.758;-9.164;2023-01-04T07:00:56;14.32;;;6.82;;
61523;SDS011;47393;38.758;-9.164;2023-01-04T07:02:57;13.50;;;7.05;;
61523;SDS011;47393;38.758;-9.164;2023-01-04T07:04:57;25.75;;;8.38;;
61523;SDS011;47393;38.758;-9.164;2023-01-04T07:06:58;7.22;;;6.60;;
61523;SDS011;47393;38.758;-9.164;2023-01-04T07:08:59;7.75;;;6.07;;
61523;SDS011;47393;38.758;-9.164;2023-01-04T07:10:59;6.05;;;5.53;;
61523;SDS011;47393;38.758;-9.164;2023-01-04T07:13:00;6.35;;;5.70;;
61523;SDS011;47393;38.758;-9.164;2023-01-04T07:15:01;14.18;;;5.95;;
61523;SDS011;47393;38.758;-9.164;2023-01-04T07:17:02;6.93;;;5.68;;
61523;SDS011;47393;38.758;-9.164;2023-01-04T07:19:02;13.73;;;5.22;;
61523;SDS011;47393;38.758;-9.164;2023-01-04T07:21:03;9.63;;;5.18;;
61523;SDS011;47393;38.758;-9.164;2023-01-04T07:23:04;7.95;;;5.32;;
61523;SDS011;47393;38.758;-9.164;2023-01-04T07:25:05;4.85;;;4.45;;
61523;SDS011;47393;38.758;-9.164;2023-01-04T07:27:05;8.38;;;4.57;;
61523;SDS011;47393;38.758;-9.164;2023-01-04T07:29:09;19.30;;;4.75;;
61523;SDS011;47393;38.758;-9.164;2023-01-04T07:31:14;4.95;;;4.60;;
61523;SDS011;47393;38.758;-9.164;2023-01-04T07:33:15;9.75;;;4.55;;
61523;SDS011;47393;38.758;-9.164;2023-01-04T07:35:16;13.25;;;4.57;;
61523;SDS011;47393;38.758;-9.164;2023-01-04T07:37:26;10.77;;;4.40;;
61523;SDS011;47393;38.758;-9.164;2023-01-04T07:39:29;16.17;;;4.38;;
61523;SDS011;47393;38.758;-9.164;2023-01-04T07:41:33;5.22;;;4.43;;
61523;SDS011;47393;38.758;-9.164;2023-01-04T07:43:34;6.10;;;3.85;;
61523;SDS011;47393;38.758;-9.164;2023-01-04T07:45:37;13.25;;;4.43;;
61523;SDS011;47393;38.758;-9.164;2023-01-04T07:47:38;6.05;;;4.43;;
61523;SDS011;47393;38.758;-9.164;2023-01-04T07:49:39;21.77;;;5.20;;
61523;SDS011;47393;38.758;-9.164;2023-01-04T07:51:40;4.80;;;4.25;;
61523;SDS011;47393;38.758;-9.164;2023-01-04T07:53:41;6.20;;;5.05;;
61523;SDS011;47393;38.758;-9.164;2023-01-04T07:55:41;21.48;;;8.00;;
61523;SDS011;47393;38.758;-9.164;2023-01-04T07:57:42;17.40;;;5.35;;
61523;SDS011;47393;38.758;-9.164;2023-01-04T07:59:42;10.40;;;5.15;;
61523;SDS011;47393;38.758;-9.164;2023-01-04T08:01:43;11.20;;;4.50;;
61523;SDS011;47393;38.758;-9.164;2023-01-04T08:03:44;5.38;;;4.00;;
61523;SDS011;47393;38.758;-9.164;2023-01-04T08:05:45;4.32;;;4.13;;
61523;SDS011;47393;38.758;-9.164;2023-01-04T08:07:46;7.38;;;4.28;;
61523;SDS011;47393;38.758;-9.164;2023-01-04T08:09:47;7.25;;;4.20;;
61523;SDS011;47393;38.758;-9.164;2023-01-04T08:11:47;15.63;;;4.18;;
61523;SDS011;47393;38.758;-9.164;2023-01-04T08:13:48;8.82;;;5.53;;
61523;SDS011;47393;38.758;-9.164;2023-01-04T08:15:52;10.63;;;4.82;;
61523;SDS011;47393;38.758;-9.164;2023-01-04T08:17:54;10.27;;;4.78;;
61523;SDS011;47393;38.758;-9.164;2023-01-04T08:19:55;12.25;;;4.97;;
61523;SDS011;47393;38.758;-9.164;2023-01-04T08:21:56;10.32;;;4.80;;
61523;SDS011;47393;38.758;-9.164;2023-01-04T08:23:56;11.43;;;4.30;;
61523;SDS011;47393;38.758;-9.164;2023-01-04T08:26:01;7.70;;;4.68;;
61523;SDS011;47393;38.758;-9.164;2023-01-04T08:28:02;7.10;;;4.60;;
61523;SDS011;47393;38.758;-9.164;2023-01-04T08:30:03;12.50;;;6.00;;
61523;SDS011;47393;38.758;-9.164;2023-01-04T08:32:04;6.65;;;4.82;;
61523;SDS011;47393;38.758;-9.164;2023-01-04T08:34:06;17.70;;;5.07;;
61523;SDS011;47393;38.758;-9.164;2023-01-04T08:36:09;10.65;;;4.80;;
61523;SDS011;47393;38.758;-9.164;2023-01-04T08:38:10;15.23;;;5.18;;
61523;SDS011;47393;38.758;-9.164;2023-01-04T08:40:10;21.20;;;5.75;;
61523;SDS011;47393;38.758;-9.164;2023-01-04T08:42:11;14.32;;;5.05;;
61523;SDS011;47393;38.758;-9.164;2023-01-04T08:44:12;7.90;;;5.20;;
61523;SDS011;47393;38.758;-9.164;2023-01-04T08:46:15;10.48;;;5.00;;
61523;SDS011;47393;38.758;-9.164;2023-01-04T08:48:16;8.90;;;4.88;;
61523;SDS011;47393;38.758;-9.164;2023-01-04T08:50:17;24.23;;;4.78;;
61523;SDS011;47393;38.758;-9.164;2023-01-04T08:52:19;14.27;;;4.88;;
61523;SDS011;47393;38.758;-9.164;2023-01-04T08:54:21;15.43;;;4.25;;
61523;SDS011;47393;38.758;-9.164;2023-01-04T08:56:22;9.40;;;4.80;;
61523;SDS011;47393;38.758;-9.164;2023-01-04T08:58:22;8.07;;;4.72;;
61523;SDS011;47393;38.758;-9.164;2023-01-04T09:00:23;7.55;;;5.00;;
61523;SDS011;47393;38.758;-9.164;2023-01-04T09:02:28;12.88;;;4.35;;
61523;SDS011;47393;38.758;-9.164;2023-01-04T09:04:29;11.05;;;4.10;;
61523;SDS011;47393;38.758;-9.164;2023-01-04T09:06:31;3.92;;;3.60;;
61523;SDS011;47393;38.758;-9.164;2023-01-04T09:08:39;9.70;;;4.10;;
61523;SDS011;47393;38.758;-9.164;2023-01-04T09:10:40;4.78;;;3.90;;
61523;SDS011;47393;38.758;-9.164;2023-01-04T09:12:49;4.25;;;3.85;;
61523;SDS011;47393;38.758;-9.164;2023-01-04T09:14:49;7.93;;;4.05;;
61523;SDS011;47393;38.758;-9.164;2023-01-04T09:16:50;5.55;;;3.83;;
61523;SDS011;47393;38.758;-9.164;2023-01-04T09:19:03;5.78;;;3.40;;
61523;SDS011;47393;38.758;-9.164;2023-01-04T09:21:20;5.28;;;3.92;;
61523;SDS011;47393;38.758;-9.164;2023-01-04T09:23:42;9.68;;;3.80;;
61523;SDS011;47393;38.758;-9.164;2023-01-04T09:25:49;6.13;;;4.13;;
61523;SDS011;47393;38.758;-9.164;2023-01-04T09:28:01;5.53;;;3.90;;
61523;SDS011;47393;38.758;-9.164;2023-01-04T09:30:02;6.65;;;3.78;;
61523;SDS011;47393;38.758;-9.164;2023-01-04T09:32:03;10.55;;;4.32;;
61523;SDS011;47393;38.758;-9.164;2023-01-04T09:34:04;9.25;;;4.30;;
61523;SDS011;47393;38.758;-9.164;2023-01-04T09:36:05;10.65;;;5.05;;
61523;SDS011;47393;38.758;-9.164;2023-01-04T09:38:06;6.35;;;4.80;;
61523;SDS011;47393;38.758;-9.164;2023-01-04T09:40:08;7.03;;;4.90;;
61523;SDS011;47393;38.758;-9.164;2023-01-04T09:44:21;10.20;;;5.28;;
61523;SDS011;47393;38.758;-9.164;2023-01-04T09:46:30;9.48;;;5.72;;
61523;SDS011;47393;38.758;-9.164;2023-01-04T09:48:32;13.43;;;6.65;;
61523;SDS011;47393;38.758;-9.164;2023-01-04T09:50:50;15.52;;;5.95;;
61523;SDS011;47393;38.758;-9.164;2023-01-04T09:52:56;11.07;;;8.05;;
61523;SDS011;47393;38.758;-9.164;2023-01-04T09:54:59;10.75;;;6.57;;
61523;SDS011;47393;38.758;-9.164;2023-01-04T09:57:01;27.25;;;6.75;;
61523;SDS011;47393;38.758;-9.164;2023-01-04T09:59:04;11.68;;;6.03;;
61523;SDS011;47393;38.758;-9.164;2023-01-04T10:05:26;9.57;;;5.45;;
61523;SDS011;47393;38.758;-9.164;2023-01-04T10:07:29;17.10;;;6.15;;
61523;SDS011;47393;38.758;-9.164;2023-01-04T10:09:32;8.30;;;5.22;;
61523;SDS011;47393;38.758;-9.164;2023-01-04T10:11:53;9.07;;;4.97;;
61523;SDS011;47393;38.758;-9.164;2023-01-04T10:14:18;5.55;;;4.50;;
61523;SDS011;47393;38.758;-9.164;2023-01-04T10:18:45;8.05;;;5.15;;
61523;SDS011;47393;38.758;-9.164;2023-01-04T10:21:50;11.30;;;5.90;;
61523;SDS011;47393;38.758;-9.164;2023-01-04T10:31:33;4.78;;;4.38;;
61523;SDS011;47393;38.758;-9.164;2023-01-04T10:33:46;5.90;;;4.75;;
61523;SDS011;47393;38.758;-9.164;2023-01-04T10:35:47;7.60;;;4.53;;
61523;SDS011;47393;38.758;-9.164;2023-01-04T10:37:55;6.00;;;3.83;;
61523;SDS011;47393;38.758;-9.164;2023-01-04T10:39:57;4.28;;;4.00;;
61523;SDS011;47393;38.758;-9.164;2023-01-04T10:44:14;5.57;;;4.32;;
61523;SDS011;47393;38.758;-9.164;2023-01-04T10:46:24;5.43;;;4.70;;
61523;SDS011;47393;38.758;-9.164;2023-01-04T10:50:59;6.22;;;4.78;;
61523;SDS011;47393;38.758;-9.164;2023-01-04T10:55:44;15.13;;;5.57;;
61523;SDS011;47393;38.758;-9.164;2023-01-04T10:57:49;5.72;;;5.32;;
61523;SDS011;47393;38.758;-9.164;2023-01-04T11:00:02;6.18;;;4.60;;
61523;SDS011;47393;38.758;-9.164;2023-01-04T11:02:29;8.90;;;4.95;;
61523;SDS011;47393;38.758;-9.164;2023-01-04T11:04:40;5.57;;;4.70;;
61523;SDS011;47393;38.758;-9.164;2023-01-04T11:08:58;7.40;;;4.95;;
61523;SDS011;47393;38.758;-9.164;2023-01-04T11:11:03;12.77;;;5.68;;
61523;SDS011;47393;38.758;-9.164;2023-01-04T11:13:05;10.10;;;5.10;;
61523;SDS011;47393;38.758;-9.164;2023-01-04T11:15:06;11.80;;;5.72;;
61523;SDS011;47393;38.758;-9.164;2023-01-04T11:17:22;9.95;;;5.45;;
61523;SDS011;47393;38.758;-9.164;2023-01-04T11:19:28;12.75;;;4.75;;
61523;SDS011;47393;38.758;-9.164;2023-01-04T11:21:30;11.07;;;5.13;;
61523;SDS011;47393;38.758;-9.164;2023-01-04T11:23:33;12.00;;;5.50;;
61523;SDS011;47393;38.758;-9.164;2023-01-04T11:25:36;5.20;;;4.70;;
61523;SDS011;47393;38.758;-9.164;2023-01-04T11:27:43;10.93;;;4.57;;
61523;SDS011;47393;38.758;-9.164;2023-01-04T11:31:56;8.02;;;4.03;;
61523;SDS011;47393;38.758;-9.164;2023-01-04T11:33:58;9.30;;;5.18;;
61523;SDS011;47393;38.758;-9.164;2023-01-04T11:35:59;4.95;;;4.53;;
61523;SDS011;47393;38.758;-9.164;2023-01-04T11:38:09;6.05;;;5.00;;
61523;SDS011;47393;38.758;-9.164;2023-01-04T11:40:11;14.93;;;4.70;;
61523;SDS011;47393;38.758;-9.164;2023-01-04T11:42:17;5.13;;;4.72;;
61523;SDS011;47393;38.758;-9.164;2023-01-04T11:44:18;10.73;;;5.93;;
61523;SDS011;47393;38.758;-9.164;2023-01-04T11:46:22;5.82;;;5.35;;
61523;SDS011;47393;38.758;-9.164;2023-01-04T11:50:40;7.47;;;4.80;;
61523;SDS011;47393;38.758;-9.164;2023-01-04T11:52:41;5.65;;;5.03;;
61523;SDS011;47393;38.758;-9.164;2023-01-04T11:54:45;9.48;;;4.97;;
61523;SDS011;47393;38.758;-9.164;2023-01-04T11:57:01;7.63;;;5.53;;
61523;SDS011;47393;38.758;-9.164;2023-01-04T11:59:04;5.22;;;4.75;;
61523;SDS011;47393;38.758;-9.164;2023-01-04T12:01:05;5.85;;;5.40;;
61523;SDS011;47393;38.758;-9.164;2023-01-04T12:03:10;6.20;;;5.32;;
61523;SDS011;47393;38.758;-9.164;2023-01-04T12:05:22;10.75;;;5.10;;
61523;SDS011;47393;38.758;-9.164;2023-01-04T12:07:28;6.88;;;5.70;;
61523;SDS011;47393;38.758;-9.164;2023-01-04T12:09:29;6.20;;;5.60;;
61523;SDS011;47393;38.758;-9.164;2023-01-04T12:11:32;9.80;;;5.38;;
61523;SDS011;47393;38.758;-9.164;2023-01-04T12:13:42;5.50;;;5.03;;
61523;SDS011;47393;38.758;-9.164;2023-01-04T12:21:39;5.90;;;5.40;;
61523;SDS011;47393;38.758;-9.164;2023-01-04T12:23:46;6.30;;;5.72;;
61523;SDS011;47393;38.758;-9.164;2023-01-04T12:25:48;8.20;;;6.32;;
61523;SDS011;47393;38.758;-9.164;2023-01-04T12:27:53;6.72;;;6.20;;
61523;SDS011;47393;38.758;-9.164;2023-01-04T12:30:00;8.73;;;5.75;;
61523;SDS011;47393;38.758;-9.164;2023-01-04T12:38:57;7.70;;;6.20;;
61523;SDS011;47393;38.758;-9.164;2023-01-04T12:40:58;7.30;;;6.60;;
61523;SDS011;47393;38.758;-9.164;2023-01-04T12:45:32;7.40;;;6.25;;
61523;SDS011;47393;38.758;-9.164;2023-01-04T12:47:37;7.10;;;6.43;;
61523;SDS011;47393;38.758;-9.164;2023-01-04T12:54:21;8.00;;;6.88;;
61523;SDS011;47393;38.758;-9.164;2023-01-04T12:56:22;6.65;;;5.90;;
61523;SDS011;47393;38.758;-9.164;2023-01-04T13:07:18;6.88;;;6.28;;
61523;SDS011;47393;38.758;-9.164;2023-01-04T13:09:24;12.07;;;6.80;;
61523;SDS011;47393;38.758;-9.164;2023-01-04T13:13:50;8.05;;;6.55;;
61523;SDS011;47393;38.758;-9.164;2023-01-04T13:17:58;8.38;;;6.80;;
61523;SDS011;47393;38.758;-9.164;2023-01-04T13:20:11;7.18;;;6.05;;
61523;SDS011;47393;38.758;-9.164;2023-01-04T13:22:26;6.78;;;6.18;;
61523;SDS011;47393;38.758;-9.164;2023-01-04T13:24:35;5.95;;;5.38;;
61523;SDS011;47393;38.758;-9.164;2023-01-04T13:26:45;6.15;;;5.57;;
61523;SDS011;47393;38.758;-9.164;2023-01-04T13:29:15;6.65;;;6.03;;
61523;SDS011;47393;38.758;-9.164;2023-01-04T13:31:14;7.60;;;6.68;;
61523;SDS011;47393;38.758;-9.164;2023-01-04T13:33:19;9.40;;;6.43;;
61523;SDS011;47393;38.758;-9.164;2023-01-04T13:35:23;14.32;;;6.53;;
61523;SDS011;47393;38.758;-9.164;2023-01-04T13:39:28;9.13;;;5.68;;
61523;SDS011;47393;38.758;-9.164;2023-01-04T13:41:29;6.57;;;5.85;;
61523;SDS011;47393;38.758;-9.164;2023-01-04T13:45:48;9.95;;;6.78;;